AirNav   Air Wisconsin Up To $57,000 Bonus
 
 502 users online  

15M Iuka Airport
Iuka, Mississippi, USA

GOING TO IUKA?


FAA INFORMATION EFFECTIVE 15 JULY 2021

Location

FAA Identifier: 15M
Lat/Long: 34-46-24.0000N 088-09-57.9000W
34-46.400000N 088-09.965000W
34.7733333,-88.1660833
(estimated)
Elevation: 625.9 ft. / 190.8 m (surveyed)
Variation: 03W (2020)
From city: 3 miles SE of IUKA, MS
Time zone: UTC -5 (UTC -6 during Standard Time)
Zip code: 38852

Airport Operations

Airport use: Open to the public
Control tower: no
ARTCC: MEMPHIS CENTER
FSS: GREENWOOD FLIGHT SERVICE STATION
NOTAMs facility: GWO (NOTAM-D service available)
Attendance: DAYLIGHT HOURS
FOR AFT HR SVC CTC AMGR.
Wind indicator: lighted
Segmented circle: yes
Lights: ACTVT REIL RWY 01 & 19; PAPI RWY 01 & 19; MIRL RWY 01/19 - CTAF. RWY LGT INTST CAN BE CHGD M-H.
Beacon: white-green (lighted land airport)
Operates sunset to sunrise.

Airport Communications

CTAF: 122.9

Nearby radio navigation aids

VOR radial/distance  VOR name  Freq  Var
MSLr276/33.5MUSCLE SHOALS VORTAC116.5001E

Airport Services

Fuel available: 100LL
100LL:FUEL AVBL 24/7 WITH CC.
Parking: tiedowns
Bottled oxygen: NONE
Bulk oxygen: NONE

Runway Information

Runway 1/19

Dimensions: 4001 x 75 ft. / 1220 x 23 m
Surface: asphalt/grooved, in good condition
Weight bearing capacity: 
Single wheel: 30.0
Runway edge lights: medium intensity
RUNWAY 1  RUNWAY 19
Latitude: 34-46.071068N34-46.729355N
Longitude: 088-09.990513W088-09.940807W
Elevation: 619.9 ft.625.9 ft.
Traffic pattern: leftleft
Markings: nonprecision, in good conditionnonprecision, in good condition
Visual slope indicator: 4-light PAPI on left (3.00 degrees glide path)4-light PAPI on left (4.00 degrees glide path)
Runway end identifier lights: yesyes
Touchdown point: yes, no lightsyes, no lights
Obstructions: 47 ft. trees, 1400 ft. from runway, 25:1 slope to clear39 ft. trees, 1340 ft. from runway, 200 ft. right of centerline, 29:1 slope to clear

Airport Ownership and Management from official FAA records

Ownership: Publicly-owned
Owner: TISHOMINGO DIST 1 2 & 3
P.O. BOX 1008
IUKA, MS 38852
Phone 662-423-7032
Manager: RICK OWENS
1008 BATTLEGROUND DRIVE
IUKA, MS 38852
Phone 662-424-2356

Airport Operational Statistics

Aircraft based on the field: 13
Single engine airplanes: 12
Helicopters: 1
    
Aircraft operations: avg 31/day *
52% local general aviation
44% transient general aviation
3% military
* for 12-month period ending 02 December 2020

Additional Remarks

A30A-01 +8 FT FENCE 200 FT FM THR 100 FT L.
FOR CD CTC MEMPHIS ARTCC AT 901-368-8453/8449.

Instrument Procedures

There are no published instrument procedures at 15M.

Some nearby airports with instrument procedures:

KCRX - Roscoe Turner Airport (23 nm W)
KSNH - Savannah-Hardin County Airport (24 nm N)
8M1 - Booneville/Baldwyn Airport (26 nm SW)
KMSL - Northwest Alabama Regional Airport (27 nm E)
M22 - Bill Pugh Field Airport (30 nm SE)
 
Loc | Ops | Rwys | IFR | FBO | Links
Com | Nav | Svcs | Stats | Notes
Area around 15M (Iuka Airport)
 
Road maps at: MapQuest Bing Google
 
Aerial photo
WARNING: Photo may not be current or correct
Aerial photo of 15M (Iuka Airport)
Photo by Jeff Williams
Photo taken 16-Sep-2007
looking north

Do you have a better or more recent aerial photo of Iuka Airport that you would like to share? If so, please send us your photo.

 
Sectional chart

 
Airport distance calculator
Flying to Iuka Airport? Find the distance to fly.

From to 15M

Sunrise and sunset
Times for 31-Jul-2021
 Local
(UTC-5)
 Zulu
(UTC)
Morning civil twilight05:3510:35
Sunrise06:0311:03
Sunset19:5500:55
Evening civil twilight20:2301:23

Current date and time
Zulu (UTC)  31-Jul-2021 10:17:47
Local (UTC-5)  31-Jul-2021 05:17:47
 
METAR
KCRX 
23nm W 
310955Z AUTO 00000KT 5SM BR CLR 24/23 A3002 RMK AO2
KSNH 
24nm N 
310955Z AUTO 00000KT 6SM BR SCT029 OVC036 23/22 A3001 RMK A01
KMSL 
28nm E 
310134Z AUTO VRB05KT 9SM TS FEW028 SCT050 BKN060 26/23 A3006 RMK AO2 LTG DSNT SW-N TSB28 PRESRR T02560233 $
KSZY 
30nm NW 
310955Z AUTO 00000KT 9SM CLR 23/22 A3001 RMK A01
TAF
KMSL 
28nm E 
310533Z 3106/0106 VRB03KT P6SM SCT035 BKN200 FM311000 00000KT 5SM BR BKN200 FM311300 28005KT P6SM SCT250
NOTAMs
Click for the latest NOTAMs
NOTAMs are issued by the DoD/FAA and will open in a separate window not controlled by AirNav.

 

 
 

FBO, Fuel Providers, and Aircraft Ground Support

  
 Business Name 
 
 Contact 
 
 Services / Description 
 
Fuel Prices
 
Comments
  
Iuka Airport 662-424-2356
[web site]
[email]

Like us on facebook
Airport management, Aviation fuel, Aircraft parking (ramp or tiedown), Restrooms

More info about Iuka Airport
Titan
100LL
SS $3.96 
 Updated 18-Jun-2021
 
   1 read write
SS=Self service
Update Fuel Prices
 

Would you like to see your business listed on this page?

 If your business provides an interesting product or service to pilots, flight crews, aircraft, or users of the Iuka Airport, you should consider listing it here.  To start the listing process, click on the button below
 
Add a business
 

Other Pages about Iuka Airport

www.k15m.com
 
Update a link
 
Copyright © AirNav, LLC. All rights reserved. Privacy Policy  Contact